sensor_id;sensor_type;location;lat;lon;timestamp;temperature;humidity
56538;DHT22;42435;53.292;6.000;2023-01-29T00:01:47;6.10;77.90
56538;DHT22;42435;53.292;6.000;2023-01-29T00:04:12;6.10;77.90
56538;DHT22;42435;53.292;6.000;2023-01-29T00:06:38;6.10;77.90
56538;DHT22;42435;53.292;6.000;2023-01-29T00:09:04;6.10;77.90
56538;DHT22;42435;53.292;6.000;2023-01-29T00:11:30;6.20;77.90
56538;DHT22;42435;53.292;6.000;2023-01-29T00:13:56;6.20;77.80
56538;DHT22;42435;53.292;6.000;2023-01-29T00:16:22;6.10;77.90
56538;DHT22;42435;53.292;6.000;2023-01-29T00:18:48;6.20;77.90
56538;DHT22;42435;53.292;6.000;2023-01-29T00:21:17;6.20;77.90
56538;DHT22;42435;53.292;6.000;2023-01-29T00:23:43;6.20;77.90
56538;DHT22;42435;53.292;6.000;2023-01-29T00:26:09;6.20;77.90
56538;DHT22;42435;53.292;6.000;2023-01-29T00:28:34;6.20;77.90
56538;DHT22;42435;53.292;6.000;2023-01-29T00:31:15;6.20;78.00
56538;DHT22;42435;53.292;6.000;2023-01-29T00:33:41;6.20;78.00
56538;DHT22;42435;53.292;6.000;2023-01-29T00:36:09;6.30;78.00
56538;DHT22;42435;53.292;6.000;2023-01-29T00:38:36;6.30;77.90
56538;DHT22;42435;53.292;6.000;2023-01-29T00:41:09;6.30;77.90
56538;DHT22;42435;53.292;6.000;2023-01-29T00:43:54;6.30;77.90
56538;DHT22;42435;53.292;6.000;2023-01-29T00:46:38;6.30;77.90
56538;DHT22;42435;53.292;6.000;2023-01-29T00:49:04;6.30;77.90
56538;DHT22;42435;53.292;6.000;2023-01-29T00:51:30;6.30;77.90
56538;DHT22;42435;53.292;6.000;2023-01-29T00:53:56;6.30;78.00
56538;DHT22;42435;53.292;6.000;2023-01-29T00:56:27;6.30;78.00
56538;DHT22;42435;53.292;6.000;2023-01-29T00:58:53;6.40;78.00
56538;DHT22;42435;53.292;6.000;2023-01-29T01:01:20;6.40;78.00
56538;DHT22;42435;53.292;6.000;2023-01-29T01:04:05;6.40;78.00
56538;DHT22;42435;53.292;6.000;2023-01-29T01:06:32;6.40;78.00
56538;DHT22;42435;53.292;6.000;2023-01-29T01:08:57;6.40;78.00
56538;DHT22;42435;53.292;6.000;2023-01-29T01:11:41;6.30;78.10
56538;DHT22;42435;53.292;6.000;2023-01-29T01:14:07;6.40;78.10
56538;DHT22;42435;53.292;6.000;2023-01-29T01:16:33;6.40;78.20
56538;DHT22;42435;53.292;6.000;2023-01-29T01:18:58;6.40;78.20
56538;DHT22;42435;53.292;6.000;2023-01-29T01:21:24;6.30;78.20
56538;DHT22;42435;53.292;6.000;2023-01-29T01:23:49;6.30;78.30
56538;DHT22;42435;53.292;6.000;2023-01-29T01:26:17;6.30;78.40
56538;DHT22;42435;53.292;6.000;2023-01-29T01:28:42;6.30;78.50
56538;DHT22;42435;53.292;6.000;2023-01-29T01:31:12;6.30;78.70
56538;DHT22;42435;53.292;6.000;2023-01-29T01:33:38;6.30;78.90
56538;DHT22;42435;53.292;6.000;2023-01-29T01:36:05;6.20;78.90
56538;DHT22;42435;53.292;6.000;2023-01-29T01:38:37;6.30;79.00
56538;DHT22;42435;53.292;6.000;2023-01-29T01:41:13;6.20;79.10
56538;DHT22;42435;53.292;6.000;2023-01-29T01:44:01;6.30;79.20
56538;DHT22;42435;53.292;6.000;2023-01-29T01:46:35;6.30;79.40
56538;DHT22;42435;53.292;6.000;2023-01-29T01:49:16;6.20;79.30
56538;DHT22;42435;53.292;6.000;2023-01-29T01:51:46;6.30;79.60
56538;DHT22;42435;53.292;6.000;2023-01-29T01:54:20;6.30;79.50
56538;DHT22;42435;53.292;6.000;2023-01-29T01:56:51;6.30;79.60
56538;DHT22;42435;53.292;6.000;2023-01-29T01:59:20;6.30;79.70
56538;DHT22;42435;53.292;6.000;2023-01-29T02:01:50;6.30;79.70
56538;DHT22;42435;53.292;6.000;2023-01-29T02:04:21;6.30;79.80
56538;DHT22;42435;53.292;6.000;2023-01-29T02:07:08;6.30;79.90
56538;DHT22;42435;53.292;6.000;2023-01-29T02:12:26;6.30;80.00
56538;DHT22;42435;53.292;6.000;2023-01-29T02:14:56;6.30;80.00
56538;DHT22;42435;53.292;6.000;2023-01-29T02:17:22;6.30;80.10
56538;DHT22;42435;53.292;6.000;2023-01-29T02:27:40;6.30;80.50
56538;DHT22;42435;53.292;6.000;2023-01-29T02:30:32;6.20;80.50
56538;DHT22;42435;53.292;6.000;2023-01-29T02:41:37;6.30;80.80
56538;DHT22;42435;53.292;6.000;2023-01-29T02:46:40;6.30;80.90
56538;DHT22;42435;53.292;6.000;2023-01-29T02:54:57;6.20;81.20
56538;DHT22;42435;53.292;6.000;2023-01-29T02:57:31;6.20;81.40
56538;DHT22;42435;53.292;6.000;2023-01-29T03:00:02;6.20;81.20
56538;DHT22;42435;53.292;6.000;2023-01-29T03:05:09;6.20;81.60
56538;DHT22;42435;53.292;6.000;2023-01-29T03:07:41;6.20;81.50
56538;DHT22;42435;53.292;6.000;2023-01-29T03:10:23;6.20;81.60
56538;DHT22;42435;53.292;6.000;2023-01-29T03:12:54;6.20;81.70
56538;DHT22;42435;53.292;6.000;2023-01-29T03:15:51;6.20;81.70
56538;DHT22;42435;53.292;6.000;2023-01-29T03:18:27;6.20;81.80
56538;DHT22;42435;53.292;6.000;2023-01-29T03:20:59;6.20;81.70
56538;DHT22;42435;53.292;6.000;2023-01-29T03:23:31;6.10;81.80
56538;DHT22;42435;53.292;6.000;2023-01-29T03:26:20;6.10;81.90
56538;DHT22;42435;53.292;6.000;2023-01-29T03:29:06;6.10;81.90
56538;DHT22;42435;53.292;6.000;2023-01-29T03:31:54;6.10;81.80
56538;DHT22;42435;53.292;6.000;2023-01-29T03:34:35;6.10;81.90
56538;DHT22;42435;53.292;6.000;2023-01-29T03:37:20;6.10;82.00
56538;DHT22;42435;53.292;6.000;2023-01-29T03:39:48;6.10;82.10
56538;DHT22;42435;53.292;6.000;2023-01-29T03:50:56;6.00;82.30
56538;DHT22;42435;53.292;6.000;2023-01-29T03:56:38;6.00;82.20
56538;DHT22;42435;53.292;6.000;2023-01-29T03:59:20;6.00;82.20
56538;DHT22;42435;53.292;6.000;2023-01-29T04:01:54;6.00;82.20
56538;DHT22;42435;53.292;6.000;2023-01-29T04:04:26;6.00;82.20
56538;DHT22;42435;53.292;6.000;2023-01-29T04:06:56;6.00;82.30
56538;DHT22;42435;53.292;6.000;2023-01-29T04:09:31;6.00;82.30
56538;DHT22;42435;53.292;6.000;2023-01-29T04:12:06;6.00;82.30
56538;DHT22;42435;53.292;6.000;2023-01-29T04:14:34;6.00;82.30
56538;DHT22;42435;53.292;6.000;2023-01-29T04:17:14;6.00;82.30
56538;DHT22;42435;53.292;6.000;2023-01-29T04:19:41;6.00;82.40
56538;DHT22;42435;53.292;6.000;2023-01-29T04:22:25;6.00;82.30
56538;DHT22;42435;53.292;6.000;2023-01-29T04:24:52;6.00;82.40
56538;DHT22;42435;53.292;6.000;2023-01-29T04:30:29;6.00;82.30
56538;DHT22;42435;53.292;6.000;2023-01-29T04:33:02;6.00;82.30
56538;DHT22;42435;53.292;6.000;2023-01-29T04:41:01;6.00;82.30
56538;DHT22;42435;53.292;6.000;2023-01-29T04:43:43;6.00;82.20
56538;DHT22;42435;53.292;6.000;2023-01-29T04:48:59;6.00;82.10
56538;DHT22;42435;53.292;6.000;2023-01-29T04:52:06;6.00;82.10
56538;DHT22;42435;53.292;6.000;2023-01-29T04:57:21;5.90;82.00
56538;DHT22;42435;53.292;6.000;2023-01-29T05:02:30;5.90;82.00
56538;DHT22;42435;53.292;6.000;2023-01-29T05:04:58;6.00;82.00
56538;DHT22;42435;53.292;6.000;2023-01-29T05:07:25;6.00;81.90
56538;DHT22;42435;53.292;6.000;2023-01-29T05:09:52;5.90;81.90
56538;DHT22;42435;53.292;6.000;2023-01-29T05:12:18;6.00;81.90
56538;DHT22;42435;53.292;6.000;2023-01-29T05:14:44;5.90;81.90
56538;DHT22;42435;53.292;6.000;2023-01-29T05:17:17;6.00;81.90
56538;DHT22;42435;53.292;6.000;2023-01-29T05:19:44;6.00;81.90
56538;DHT22;42435;53.292;6.000;2023-01-29T05:22:11;6.00;81.80
56538;DHT22;42435;53.292;6.000;2023-01-29T05:24:37;6.00;81.80
56538;DHT22;42435;53.292;6.000;2023-01-29T05:27:03;6.00;81.80
56538;DHT22;42435;53.292;6.000;2023-01-29T05:29:48;6.00;81.80
56538;DHT22;42435;53.292;6.000;2023-01-29T05:32:14;6.00;81.80
56538;DHT22;42435;53.292;6.000;2023-01-29T05:34:41;6.00;81.70
56538;DHT22;42435;53.292;6.000;2023-01-29T05:37:08;6.00;81.70
56538;DHT22;42435;53.292;6.000;2023-01-29T05:39:34;6.00;81.70
56538;DHT22;42435;53.292;6.000;2023-01-29T05:41:59;6.10;81.60
56538;DHT22;42435;53.292;6.000;2023-01-29T05:44:25;6.10;81.60
56538;DHT22;42435;53.292;6.000;2023-01-29T05:46:51;6.10;81.50
56538;DHT22;42435;53.292;6.000;2023-01-29T05:49:17;6.10;81.40
56538;DHT22;42435;53.292;6.000;2023-01-29T05:51:43;6.10;81.30
56538;DHT22;42435;53.292;6.000;2023-01-29T05:54:12;6.10;81.30
56538;DHT22;42435;53.292;6.000;2023-01-29T05:56:38;6.00;81.20
56538;DHT22;42435;53.292;6.000;2023-01-29T05:59:04;6.00;81.20
56538;DHT22;42435;53.292;6.000;2023-01-29T06:01:29;6.00;81.20
56538;DHT22;42435;53.292;6.000;2023-01-29T06:03:55;6.00;81.20
56538;DHT22;42435;53.292;6.000;2023-01-29T06:06:21;6.00;81.20
56538;DHT22;42435;53.292;6.000;2023-01-29T06:08:47;6.00;81.20
56538;DHT22;42435;53.292;6.000;2023-01-29T06:11:13;6.00;81.20
56538;DHT22;42435;53.292;6.000;2023-01-29T06:13:39;6.00;81.30
56538;DHT22;42435;53.292;6.000;2023-01-29T06:16:08;6.00;81.30
56538;DHT22;42435;53.292;6.000;2023-01-29T06:18:37;5.90;81.40
56538;DHT22;42435;53.292;6.000;2023-01-29T06:21:04;5.90;81.50
56538;DHT22;42435;53.292;6.000;2023-01-29T06:23:31;6.00;81.50
56538;DHT22;42435;53.292;6.000;2023-01-29T06:26:09;5.90;81.60
56538;DHT22;42435;53.292;6.000;2023-01-29T06:28:35;5.90;81.60
56538;DHT22;42435;53.292;6.000;2023-01-29T06:31:02;5.90;81.60
56538;DHT22;42435;53.292;6.000;2023-01-29T06:33:28;5.90;81.60
56538;DHT22;42435;53.292;6.000;2023-01-29T06:35:58;5.90;81.60
56538;DHT22;42435;53.292;6.000;2023-01-29T06:38:24;5.90;81.70
56538;DHT22;42435;53.292;6.000;2023-01-29T06:40:51;5.90;81.70
56538;DHT22;42435;53.292;6.000;2023-01-29T06:43:17;5.80;81.70
56538;DHT22;42435;53.292;6.000;2023-01-29T06:45:51;5.80;81.80
56538;DHT22;42435;53.292;6.000;2023-01-29T06:48:17;5.90;81.90
56538;DHT22;42435;53.292;6.000;2023-01-29T06:50:44;5.90;81.80
56538;DHT22;42435;53.292;6.000;2023-01-29T06:53:09;5.80;81.90
56538;DHT22;42435;53.292;6.000;2023-01-29T06:55:35;5.80;81.90
56538;DHT22;42435;53.292;6.000;2023-01-29T06:58:08;5.80;82.00
56538;DHT22;42435;53.292;6.000;2023-01-29T07:00:35;5.80;82.20
56538;DHT22;42435;53.292;6.000;2023-01-29T07:03:01;5.80;82.20
56538;DHT22;42435;53.292;6.000;2023-01-29T07:05:27;5.70;82.20
56538;DHT22;42435;53.292;6.000;2023-01-29T07:07:53;5.80;82.30
56538;DHT22;42435;53.292;6.000;2023-01-29T07:10:19;5.80;82.40
56538;DHT22;42435;53.292;6.000;2023-01-29T07:12:45;5.70;82.40
56538;DHT22;42435;53.292;6.000;2023-01-29T07:15:10;5.70;82.40
56538;DHT22;42435;53.292;6.000;2023-01-29T07:17:37;5.80;82.40
56538;DHT22;42435;53.292;6.000;2023-01-29T07:20:04;5.80;82.50
56538;DHT22;42435;53.292;6.000;2023-01-29T07:22:30;5.70;82.60
56538;DHT22;42435;53.292;6.000;2023-01-29T07:24:56;5.80;82.60
56538;DHT22;42435;53.292;6.000;2023-01-29T07:27:22;5.70;82.70
56538;DHT22;42435;53.292;6.000;2023-01-29T07:29:47;5.70;82.80
56538;DHT22;42435;53.292;6.000;2023-01-29T07:32:13;5.70;82.80
56538;DHT22;42435;53.292;6.000;2023-01-29T07:34:39;5.70;82.90
56538;DHT22;42435;53.292;6.000;2023-01-29T07:37:04;5.70;83.00
56538;DHT22;42435;53.292;6.000;2023-01-29T07:39:31;5.70;83.00
56538;DHT22;42435;53.292;6.000;2023-01-29T07:41:56;5.70;83.20
56538;DHT22;42435;53.292;6.000;2023-01-29T07:44:22;5.70;83.20
56538;DHT22;42435;53.292;6.000;2023-01-29T07:46:48;5.70;83.20
56538;DHT22;42435;53.292;6.000;2023-01-29T07:49:14;5.70;83.30
56538;DHT22;42435;53.292;6.000;2023-01-29T07:51:39;5.70;83.30
56538;DHT22;42435;53.292;6.000;2023-01-29T07:54:05;5.70;83.40
56538;DHT22;42435;53.292;6.000;2023-01-29T07:56:31;5.70;83.50
56538;DHT22;42435;53.292;6.000;2023-01-29T07:58:56;5.70;83.60
56538;DHT22;42435;53.292;6.000;2023-01-29T08:01:22;5.70;83.70
56538;DHT22;42435;53.292;6.000;2023-01-29T08:03:47;5.80;83.80
56538;DHT22;42435;53.292;6.000;2023-01-29T08:06:13;5.70;83.80
56538;DHT22;42435;53.292;6.000;2023-01-29T08:08:38;5.70;83.90
56538;DHT22;42435;53.292;6.000;2023-01-29T08:11:04;5.80;84.00
56538;DHT22;42435;53.292;6.000;2023-01-29T08:13:30;5.80;84.00
56538;DHT22;42435;53.292;6.000;2023-01-29T08:16:00;5.80;84.00
56538;DHT22;42435;53.292;6.000;2023-01-29T08:18:26;5.80;84.10
56538;DHT22;42435;53.292;6.000;2023-01-29T08:20:52;5.80;84.00
56538;DHT22;42435;53.292;6.000;2023-01-29T08:23:17;5.90;84.10
56538;DHT22;42435;53.292;6.000;2023-01-29T08:25:43;5.90;84.00
56538;DHT22;42435;53.292;6.000;2023-01-29T08:28:09;5.90;84.10
56538;DHT22;42435;53.292;6.000;2023-01-29T08:30:36;5.90;84.10
56538;DHT22;42435;53.292;6.000;2023-01-29T08:33:03;5.90;84.10
56538;DHT22;42435;53.292;6.000;2023-01-29T08:35:28;5.90;84.10
56538;DHT22;42435;53.292;6.000;2023-01-29T08:37:56;5.90;84.10
56538;DHT22;42435;53.292;6.000;2023-01-29T08:40:23;5.90;84.00
56538;DHT22;42435;53.292;6.000;2023-01-29T08:42:49;5.90;84.00
56538;DHT22;42435;53.292;6.000;2023-01-29T08:45:16;5.90;84.00
56538;DHT22;42435;53.292;6.000;2023-01-29T08:47:48;5.90;84.10
56538;DHT22;42435;53.292;6.000;2023-01-29T08:50:16;5.90;84.10
56538;DHT22;42435;53.292;6.000;2023-01-29T08:52:42;5.90;84.10
56538;DHT22;42435;53.292;6.000;2023-01-29T08:55:08;6.00;84.10
56538;DHT22;42435;53.292;6.000;2023-01-29T08:57:34;5.90;84.10
56538;DHT22;42435;53.292;6.000;2023-01-29T09:00:00;5.90;84.10
56538;DHT22;42435;53.292;6.000;2023-01-29T09:02:25;5.90;84.20
56538;DHT22;42435;53.292;6.000;2023-01-29T09:04:51;6.00;84.30
56538;DHT22;42435;53.292;6.000;2023-01-29T09:07:16;6.00;84.20
56538;DHT22;42435;53.292;6.000;2023-01-29T09:09:42;6.00;84.20
56538;DHT22;42435;53.292;6.000;2023-01-29T09:12:07;6.10;84.20
56538;DHT22;42435;53.292;6.000;2023-01-29T09:14:33;6.00;84.10
56538;DHT22;42435;53.292;6.000;2023-01-29T09:16:59;6.10;84.10
56538;DHT22;42435;53.292;6.000;2023-01-29T09:19:24;6.10;84.00
56538;DHT22;42435;53.292;6.000;2023-01-29T09:21:50;6.10;84.10
56538;DHT22;42435;53.292;6.000;2023-01-29T09:24:16;6.10;84.10
56538;DHT22;42435;53.292;6.000;2023-01-29T09:26:42;6.10;84.10
56538;DHT22;42435;53.292;6.000;2023-01-29T09:29:09;6.10;84.10
56538;DHT22;42435;53.292;6.000;2023-01-29T09:31:36;6.20;84.10
56538;DHT22;42435;53.292;6.000;2023-01-29T09:34:02;6.20;84.10
56538;DHT22;42435;53.292;6.000;2023-01-29T09:36:27;6.20;84.10
56538;DHT22;42435;53.292;6.000;2023-01-29T09:38:53;6.20;84.10
56538;DHT22;42435;53.292;6.000;2023-01-29T09:41:42;6.20;84.10
56538;DHT22;42435;53.292;6.000;2023-01-29T09:44:19;6.20;84.20
56538;DHT22;42435;53.292;6.000;2023-01-29T09:46:49;6.20;84.10
56538;DHT22;42435;53.292;6.000;2023-01-29T09:49:38;6.30;84.10
56538;DHT22;42435;53.292;6.000;2023-01-29T09:52:15;6.20;84.20
56538;DHT22;42435;53.292;6.000;2023-01-29T09:55:09;6.20;84.10
56538;DHT22;42435;53.292;6.000;2023-01-29T10:00:22;6.20;84.10
56538;DHT22;42435;53.292;6.000;2023-01-29T10:06:18;6.30;84.20
56538;DHT22;42435;53.292;6.000;2023-01-29T10:08:53;6.20;84.10
56538;DHT22;42435;53.292;6.000;2023-01-29T10:25:10;6.30;84.30
56538;DHT22;42435;53.292;6.000;2023-01-29T10:27:40;6.30;84.40
56538;DHT22;42435;53.292;6.000;2023-01-29T10:30:43;6.30;84.30
56538;DHT22;42435;53.292;6.000;2023-01-29T10:33:23;6.30;84.40
56538;DHT22;42435;53.292;6.000;2023-01-29T10:35:54;6.30;84.30
56538;DHT22;42435;53.292;6.000;2023-01-29T10:38:47;6.30;84.40
56538;DHT22;42435;53.292;6.000;2023-01-29T10:44:21;6.30;84.70
56538;DHT22;42435;53.292;6.000;2023-01-29T10:46:54;6.40;84.70
56538;DHT22;42435;53.292;6.000;2023-01-29T10:52:19;6.40;84.70
56538;DHT22;42435;53.292;6.000;2023-01-29T11:00:41;6.50;84.80
56538;DHT22;42435;53.292;6.000;2023-01-29T11:03:28;6.50;84.90
56538;DHT22;42435;53.292;6.000;2023-01-29T11:08:36;6.50;84.80
56538;DHT22;42435;53.292;6.000;2023-01-29T11:11:08;6.50;85.00
56538;DHT22;42435;53.292;6.000;2023-01-29T11:13:57;6.60;85.00
56538;DHT22;42435;53.292;6.000;2023-01-29T11:16:25;6.60;85.10
56538;DHT22;42435;53.292;6.000;2023-01-29T11:19:00;6.70;85.00
56538;DHT22;42435;53.292;6.000;2023-01-29T11:21:28;6.70;84.90
56538;DHT22;42435;53.292;6.000;2023-01-29T11:26:37;6.70;85.00
56538;DHT22;42435;53.292;6.000;2023-01-29T11:29:04;6.70;84.90
56538;DHT22;42435;53.292;6.000;2023-01-29T11:31:38;6.70;84.90
56538;DHT22;42435;53.292;6.000;2023-01-29T11:34:15;6.80;85.00
56538;DHT22;42435;53.292;6.000;2023-01-29T11:36:43;6.80;85.00
56538;DHT22;42435;53.292;6.000;2023-01-29T11:39:20;6.80;85.00
56538;DHT22;42435;53.292;6.000;2023-01-29T11:42:02;6.80;85.10
56538;DHT22;42435;53.292;6.000;2023-01-29T11:49:47;6.90;85.20
56538;DHT22;42435;53.292;6.000;2023-01-29T11:52:17;6.90;85.10
56538;DHT22;42435;53.292;6.000;2023-01-29T11:54:52;6.90;85.10
56538;DHT22;42435;53.292;6.000;2023-01-29T11:57:32;6.90;85.10
56538;DHT22;42435;53.292;6.000;2023-01-29T12:02:37;6.90;85.10
56538;DHT22;42435;53.292;6.000;2023-01-29T12:05:20;6.90;85.10
56538;DHT22;42435;53.292;6.000;2023-01-29T12:07:51;6.90;85.20
56538;DHT22;42435;53.292;6.000;2023-01-29T12:10:41;6.90;85.20
56538;DHT22;42435;53.292;6.000;2023-01-29T12:15:47;6.90;85.40
56538;DHT22;42435;53.292;6.000;2023-01-29T12:18:28;6.90;85.40
56538;DHT22;42435;53.292;6.000;2023-01-29T12:21:04;6.90;85.60
56538;DHT22;42435;53.292;6.000;2023-01-29T12:26:34;7.00;85.60
56538;DHT22;42435;53.292;6.000;2023-01-29T12:29:51;7.00;85.60
56538;DHT22;42435;53.292;6.000;2023-01-29T12:37:21;7.10;85.50
56538;DHT22;42435;53.292;6.000;2023-01-29T12:39:50;7.20;85.50
56538;DHT22;42435;53.292;6.000;2023-01-29T12:42:21;7.20;85.40
56538;DHT22;42435;53.292;6.000;2023-01-29T12:47:36;7.20;85.40
56538;DHT22;42435;53.292;6.000;2023-01-29T12:50:21;7.20;85.50
56538;DHT22;42435;53.292;6.000;2023-01-29T12:52:58;7.20;85.50
56538;DHT22;42435;53.292;6.000;2023-01-29T12:55:45;7.10;85.50
56538;DHT22;42435;53.292;6.000;2023-01-29T12:58:46;7.20;85.50
56538;DHT22;42435;53.292;6.000;2023-01-29T13:01:15;7.20;85.50
56538;DHT22;42435;53.292;6.000;2023-01-29T13:04:10;7.20;85.50
56538;DHT22;42435;53.292;6.000;2023-01-29T13:06:44;7.20;85.60
56538;DHT22;42435;53.292;6.000;2023-01-29T13:09:16;7.20;85.50
56538;DHT22;42435;53.292;6.000;2023-01-29T13:12:06;7.20;85.50
56538;DHT22;42435;53.292;6.000;2023-01-29T13:14:53;7.30;85.60
56538;DHT22;42435;53.292;6.000;2023-01-29T13:17:36;7.30;85.60
56538;DHT22;42435;53.292;6.000;2023-01-29T13:22:43;7.40;85.40
56538;DHT22;42435;53.292;6.000;2023-01-29T13:25:15;7.40;85.30
56538;DHT22;42435;53.292;6.000;2023-01-29T13:27:42;7.40;85.30
56538;DHT22;42435;53.292;6.000;2023-01-29T13:30:27;7.40;85.30
56538;DHT22;42435;53.292;6.000;2023-01-29T13:32:54;7.40;85.30
56538;DHT22;42435;53.292;6.000;2023-01-29T13:35:34;7.40;85.20
56538;DHT22;42435;53.292;6.000;2023-01-29T13:38:01;7.40;85.20
56538;DHT22;42435;53.292;6.000;2023-01-29T13:40:29;7.40;85.20
56538;DHT22;42435;53.292;6.000;2023-01-29T13:42:56;7.40;85.20
56538;DHT22;42435;53.292;6.000;2023-01-29T13:45:42;7.50;85.10
56538;DHT22;42435;53.292;6.000;2023-01-29T13:48:18;7.50;85.10
56538;DHT22;42435;53.292;6.000;2023-01-29T13:50:46;7.40;85.00
56538;DHT22;42435;53.292;6.000;2023-01-29T13:53:50;7.40;84.90
56538;DHT22;42435;53.292;6.000;2023-01-29T13:58:54;7.40;85.20
56538;DHT22;42435;53.292;6.000;2023-01-29T14:04:21;7.40;85.20
56538;DHT22;42435;53.292;6.000;2023-01-29T14:06:54;7.40;85.10
56538;DHT22;42435;53.292;6.000;2023-01-29T14:12:01;7.40;85.10
56538;DHT22;42435;53.292;6.000;2023-01-29T14:17:16;7.40;85.10
56538;DHT22;42435;53.292;6.000;2023-01-29T14:19:57;7.40;85.10
56538;DHT22;42435;53.292;6.000;2023-01-29T14:22:26;7.40;85.10
56538;DHT22;42435;53.292;6.000;2023-01-29T14:24:59;7.40;85.10
56538;DHT22;42435;53.292;6.000;2023-01-29T14:27:26;7.40;85.10
56538;DHT22;42435;53.292;6.000;2023-01-29T14:29:58;7.40;85.10
56538;DHT22;42435;53.292;6.000;2023-01-29T14:32:25;7.40;85.10
56538;DHT22;42435;53.292;6.000;2023-01-29T14:35:01;7.40;85.00
56538;DHT22;42435;53.292;6.000;2023-01-29T14:37:36;7.40;85.10
56538;DHT22;42435;53.292;6.000;2023-01-29T14:40:12;7.40;85.00
56538;DHT22;42435;53.292;6.000;2023-01-29T14:42:50;7.40;85.00
56538;DHT22;42435;53.292;6.000;2023-01-29T14:53:13;7.40;85.00
56538;DHT22;42435;53.292;6.000;2023-01-29T14:55:58;7.40;85.00
56538;DHT22;42435;53.292;6.000;2023-01-29T14:58:41;7.30;85.00
56538;DHT22;42435;53.292;6.000;2023-01-29T15:01:24;7.40;85.00
56538;DHT22;42435;53.292;6.000;2023-01-29T15:04:02;7.40;85.00
56538;DHT22;42435;53.292;6.000;2023-01-29T15:06:45;7.40;84.90
56538;DHT22;42435;53.292;6.000;2023-01-29T15:09:36;7.30;84.80
56538;DHT22;42435;53.292;6.000;2023-01-29T15:12:37;7.40;84.80
56538;DHT22;42435;53.292;6.000;2023-01-29T15:15:30;7.40;84.70
56538;DHT22;42435;53.292;6.000;2023-01-29T15:18:08;7.40;84.70
56538;DHT22;42435;53.292;6.000;2023-01-29T15:20:39;7.40;84.60
56538;DHT22;42435;53.292;6.000;2023-01-29T15:23:30;7.40;84.50
56538;DHT22;42435;53.292;6.000;2023-01-29T15:26:07;7.30;84.40
56538;DHT22;42435;53.292;6.000;2023-01-29T15:28:36;7.40;84.30
56538;DHT22;42435;53.292;6.000;2023-01-29T15:31:04;7.40;84.20
56538;DHT22;42435;53.292;6.000;2023-01-29T15:33:33;7.30;84.10
56538;DHT22;42435;53.292;6.000;2023-01-29T15:36:03;7.30;84.00
56538;DHT22;42435;53.292;6.000;2023-01-29T15:38:30;7.30;83.90
56538;DHT22;42435;53.292;6.000;2023-01-29T15:40:59;7.30;83.80
56538;DHT22;42435;53.292;6.000;2023-01-29T15:43:30;7.20;83.60
56538;DHT22;42435;53.292;6.000;2023-01-29T15:46:04;7.20;83.40
56538;DHT22;42435;53.292;6.000;2023-01-29T15:48:34;7.30;83.30
56538;DHT22;42435;53.292;6.000;2023-01-29T15:51:00;7.30;83.20
56538;DHT22;42435;53.292;6.000;2023-01-29T15:53:59;7.30;83.20
56538;DHT22;42435;53.292;6.000;2023-01-29T15:56:37;7.30;83.20
56538;DHT22;42435;53.292;6.000;2023-01-29T15:59:05;7.30;83.10
56538;DHT22;42435;53.292;6.000;2023-01-29T16:01:32;7.20;83.20
56538;DHT22;42435;53.292;6.000;2023-01-29T16:03:58;7.30;83.20
56538;DHT22;42435;53.292;6.000;2023-01-29T16:06:38;7.30;83.20
56538;DHT22;42435;53.292;6.000;2023-01-29T16:09:05;7.30;83.20
56538;DHT22;42435;53.292;6.000;2023-01-29T16:11:32;7.30;83.20
56538;DHT22;42435;53.292;6.000;2023-01-29T16:13:58;7.30;83.20
56538;DHT22;42435;53.292;6.000;2023-01-29T16:16:26;7.20;83.20
56538;DHT22;42435;53.292;6.000;2023-01-29T16:18:52;7.20;83.20
56538;DHT22;42435;53.292;6.000;2023-01-29T16:21:36;7.20;83.20
56538;DHT22;42435;53.292;6.000;2023-01-29T16:24:12;7.20;83.30
56538;DHT22;42435;53.292;6.000;2023-01-29T16:26:45;7.20;83.30
56538;DHT22;42435;53.292;6.000;2023-01-29T16:29:25;7.20;83.30
56538;DHT22;42435;53.292;6.000;2023-01-29T16:31:53;7.20;83.30
56538;DHT22;42435;53.292;6.000;2023-01-29T16:34:30;7.20;83.20
56538;DHT22;42435;53.292;6.000;2023-01-29T16:37:01;7.20;83.20
56538;DHT22;42435;53.292;6.000;2023-01-29T16:39:48;7.20;83.20
56538;DHT22;42435;53.292;6.000;2023-01-29T16:45:01;7.20;83.30
56538;DHT22;42435;53.292;6.000;2023-01-29T16:50:21;7.20;83.40
56538;DHT22;42435;53.292;6.000;2023-01-29T16:52:56;7.20;83.40
56538;DHT22;42435;53.292;6.000;2023-01-29T16:55:23;7.10;83.50
56538;DHT22;42435;53.292;6.000;2023-01-29T16:57:53;7.20;83.50
56538;DHT22;42435;53.292;6.000;2023-01-29T17:00:27;7.20;83.60
56538;DHT22;42435;53.292;6.000;2023-01-29T17:03:02;7.10;83.60
56538;DHT22;42435;53.292;6.000;2023-01-29T17:05:29;7.20;83.70
56538;DHT22;42435;53.292;6.000;2023-01-29T17:07:57;7.10;83.70
56538;DHT22;42435;53.292;6.000;2023-01-29T17:10:24;7.10;83.70
56538;DHT22;42435;53.292;6.000;2023-01-29T17:13:00;7.20;83.80
56538;DHT22;42435;53.292;6.000;2023-01-29T17:15:33;7.20;83.90
56538;DHT22;42435;53.292;6.000;2023-01-29T17:17:59;7.20;84.00
56538;DHT22;42435;53.292;6.000;2023-01-29T17:20:25;7.20;84.00
56538;DHT22;42435;53.292;6.000;2023-01-29T17:22:50;7.20;83.90
56538;DHT22;42435;53.292;6.000;2023-01-29T17:25:16;7.20;84.00
56538;DHT22;42435;53.292;6.000;2023-01-29T17:27:43;7.30;83.90
56538;DHT22;42435;53.292;6.000;2023-01-29T17:30:18;7.20;83.90
56538;DHT22;42435;53.292;6.000;2023-01-29T17:32:44;7.20;83.80
56538;DHT22;42435;53.292;6.000;2023-01-29T17:35:14;7.20;83.70
56538;DHT22;42435;53.292;6.000;2023-01-29T17:37:40;7.20;83.60
56538;DHT22;42435;53.292;6.000;2023-01-29T17:40:15;7.20;83.50
56538;DHT22;42435;53.292;6.000;2023-01-29T17:42:42;7.20;83.50
56538;DHT22;42435;53.292;6.000;2023-01-29T17:45:08;7.20;83.40
56538;DHT22;42435;53.292;6.000;2023-01-29T17:47:35;7.10;83.30
56538;DHT22;42435;53.292;6.000;2023-01-29T17:50:00;7.10;83.20
56538;DHT22;42435;53.292;6.000;2023-01-29T17:52:26;7.00;83.20
56538;DHT22;42435;53.292;6.000;2023-01-29T17:54:51;7.00;83.20
56538;DHT22;42435;53.292;6.000;2023-01-29T17:57:17;7.00;83.10
56538;DHT22;42435;53.292;6.000;2023-01-29T17:59:42;7.00;83.10
56538;DHT22;42435;53.292;6.000;2023-01-29T18:02:09;7.00;83.00
56538;DHT22;42435;53.292;6.000;2023-01-29T18:04:34;7.00;82.90
56538;DHT22;42435;53.292;6.000;2023-01-29T18:07:00;7.00;82.80
56538;DHT22;42435;53.292;6.000;2023-01-29T18:09:26;6.90;82.80
56538;DHT22;42435;53.292;6.000;2023-01-29T18:11:52;6.90;82.70
56538;DHT22;42435;53.292;6.000;2023-01-29T18:14:18;6.90;82.70
56538;DHT22;42435;53.292;6.000;2023-01-29T18:16:44;6.80;82.80
56538;DHT22;42435;53.292;6.000;2023-01-29T18:19:21;6.90;82.80
56538;DHT22;42435;53.292;6.000;2023-01-29T18:21:48;6.90;82.70
56538;DHT22;42435;53.292;6.000;2023-01-29T18:24:14;6.80;82.70
56538;DHT22;42435;53.292;6.000;2023-01-29T18:26:39;6.90;82.60
56538;DHT22;42435;53.292;6.000;2023-01-29T18:29:05;6.90;82.50
56538;DHT22;42435;53.292;6.000;2023-01-29T18:31:31;6.90;82.50
56538;DHT22;42435;53.292;6.000;2023-01-29T18:33:56;6.80;82.50
56538;DHT22;42435;53.292;6.000;2023-01-29T18:36:22;6.80;82.50